createdAt,value
2019-03-28T00:00:21.255Z,26.9
2019-03-28T00:01:10.991Z,26.9
2019-03-28T00:02:01.681Z,26.8
2019-03-28T00:02:50.803Z,26.8
2019-03-28T00:03:40.886Z,26.8
2019-03-28T00:04:30.661Z,26.7
2019-03-28T00:05:21.053Z,26.7
2019-03-28T00:06:11.915Z,26.5
2019-03-28T00:07:01.133Z,26.2
2019-03-28T00:07:51.454Z,26.1
2019-03-28T00:08:40.971Z,25.9
2019-03-28T00:09:31.865Z,25.8
2019-03-28T00:10:22.200Z,25.8
2019-03-28T00:11:11.810Z,25.7
2019-03-28T00:12:02.493Z,25.6
2019-03-28T00:12:51.829Z,25.6
2019-03-28T00:13:42.143Z,25.5
2019-03-28T00:14:32.254Z,25.5
2019-03-28T00:15:22.002Z,25.4
2019-03-28T00:16:12.068Z,25.4
2019-03-28T00:17:01.109Z,25.3
2019-03-28T00:17:51.787Z,25.1
2019-03-28T00:18:41.854Z,24.9
2019-03-28T00:19:31.095Z,24.9
2019-03-28T00:20:23.143Z,24.8
2019-03-28T00:21:11.467Z,24.8
2019-03-28T00:22:05.361Z,24.8
2019-03-28T00:22:52.143Z,24.7
2019-03-28T00:23:42.676Z,24.6
2019-03-28T00:24:32.767Z,24.6
2019-03-28T00:25:22.267Z,24.6
2019-03-28T00:26:12.610Z,24.6
2019-03-28T00:27:03.059Z,24.5
2019-03-28T00:27:53.490Z,24.4
2019-03-28T00:28:43.832Z,24.3
2019-03-28T00:29:33.439Z,24.2
2019-03-28T00:30:23.621Z,24.1
2019-03-28T00:31:13.757Z,24.1
2019-03-28T00:32:03.842Z,24.1
2019-03-28T00:32:53.549Z,24.1
2019-03-28T00:33:42.575Z,24
2019-03-28T00:34:33.485Z,24
2019-03-28T00:35:22.993Z,24
2019-03-28T00:36:13.322Z,23.9
2019-03-28T00:37:03.634Z,23.9
2019-03-28T00:37:54.183Z,24.1
2019-03-28T00:38:43.750Z,25.4
2019-03-28T00:39:33.459Z,26.4
2019-03-28T00:40:24.359Z,27.4
2019-03-28T00:41:13.679Z,28.1
2019-03-28T00:42:02.891Z,28.6
2019-03-28T00:42:54.256Z,29.1
2019-03-28T00:43:43.584Z,29.6
2019-03-28T00:44:34.098Z,29.9
2019-03-28T00:45:23.791Z,30.3
2019-03-28T00:46:14.234Z,30.6
2019-03-28T00:47:04.046Z,30.9
2019-03-28T00:47:54.633Z,31.2
2019-03-28T00:48:44.948Z,31.4
2019-03-28T00:49:34.738Z,31.7
2019-03-28T00:50:24.803Z,31.9
2019-03-28T00:51:14.651Z,32.1
2019-03-28T00:52:04.690Z,31.3
2019-03-28T00:52:55.026Z,29.6
2019-03-28T00:53:45.138Z,28.5
2019-03-28T00:55:25.521Z,27.3
2019-03-28T00:56:14.955Z,27
2019-03-28T00:57:05.666Z,26.8
2019-03-28T00:57:54.620Z,26.6
2019-03-28T00:58:45.119Z,26.4
2019-03-28T00:59:35.555Z,26.4
2019-03-28T01:00:23.990Z,26.3
2019-03-28T01:01:15.121Z,26.4
2019-03-28T01:02:05.201Z,26.4
2019-03-28T01:02:54.992Z,26.4
2019-03-28T01:03:45.623Z,26.4
2019-03-28T01:04:35.085Z,26.3
2019-03-28T01:05:25.463Z,26.3
2019-03-28T01:06:14.935Z,26.3
2019-03-28T01:07:04.810Z,26.3
2019-03-28T01:07:55.424Z,26.2
2019-03-28T01:08:45.735Z,26.2
2019-03-28T01:09:36.090Z,26.1
2019-03-28T01:10:27.009Z,26.1
2019-03-28T01:11:16.967Z,26.1
2019-03-28T01:12:06.337Z,25.9
2019-03-28T01:12:56.982Z,25.7
2019-03-28T01:13:47.117Z,25.6
2019-03-28T01:14:36.204Z,25.5
2019-03-28T01:15:26.432Z,25.4
2019-03-28T01:16:16.592Z,25.4
2019-03-28T01:17:06.691Z,25.4
2019-03-28T01:17:57.564Z,25.3
2019-03-28T01:18:47.262Z,25.3
2019-03-28T01:19:37.123Z,25.3
2019-03-28T01:20:26.768Z,25.3
2019-03-28T01:21:17.404Z,25.2
2019-03-28T01:22:07.651Z,25.1
2019-03-28T01:22:57.711Z,24.9
2019-03-28T01:23:48.047Z,24.8
2019-03-28T01:24:37.316Z,24.8
2019-03-28T01:25:28.015Z,24.6
2019-03-28T01:26:17.423Z,24.6
2019-03-28T01:27:07.734Z,24.6
2019-03-28T01:27:57.976Z,24.6
2019-03-28T01:28:48.175Z,24.6
2019-03-28T01:29:37.824Z,24.5
2019-03-28T01:30:27.473Z,24.4
2019-03-28T01:31:17.519Z,24.4
2019-03-28T01:32:08.525Z,24.4
2019-03-28T01:32:58.481Z,24.4
2019-03-28T01:33:48.191Z,25.6
2019-03-28T01:34:38.481Z,26.7
2019-03-28T01:35:29.006Z,27.6
2019-03-28T01:36:18.911Z,28.3
2019-03-28T01:37:08.431Z,28.8
2019-03-28T01:37:58.553Z,29.3
2019-03-28T01:38:48.803Z,29.6
2019-03-28T01:39:39.293Z,29.9
2019-03-28T01:40:28.835Z,30.3
2019-03-28T01:41:19.153Z,30.6
2019-03-28T01:42:09.569Z,30.9
2019-03-28T01:42:58.503Z,31.1
2019-03-28T01:43:48.672Z,31.4
2019-03-28T01:44:38.213Z,31.6
2019-03-28T01:45:28.573Z,31.8
2019-03-28T01:46:18.568Z,32
2019-03-28T01:47:08.928Z,32.1
2019-03-28T01:47:57.588Z,30.4
2019-03-28T01:48:49.095Z,28.8
2019-03-28T01:49:38.838Z,27.6
2019-03-28T01:50:28.875Z,26.9
2019-03-28T01:51:18.651Z,26.4
2019-03-28T01:52:12.478Z,26.2
2019-03-28T01:52:59.626Z,25.9
2019-03-28T01:53:48.553Z,25.8
2019-03-28T01:54:38.918Z,25.7
2019-03-28T01:55:29.490Z,25.6
2019-03-28T01:56:19.855Z,25.6
2019-03-28T01:57:19.717Z,25.6
2019-03-28T01:57:59.687Z,25.9
2019-03-28T01:58:49.752Z,25.9
2019-03-28T01:59:39.804Z,25.9
2019-03-28T02:00:29.860Z,25.9
2019-03-28T02:01:19.658Z,25.9
2019-03-28T02:02:09.427Z,25.9
2019-03-28T02:03:00.342Z,25.9
2019-03-28T02:03:49.887Z,25.9
2019-03-28T02:04:40.241Z,25.8
2019-03-28T02:05:30.277Z,25.8
2019-03-28T02:06:20.004Z,25.8
2019-03-28T02:07:10.086Z,25.8
2019-03-28T02:08:02.429Z,25.7
2019-03-28T02:08:50.236Z,25.5
2019-03-28T02:09:40.873Z,25.4
2019-03-28T02:10:30.841Z,25.4
2019-03-28T02:11:21.049Z,25.3
2019-03-28T02:12:11.150Z,25.3
2019-03-28T02:13:01.697Z,25.2
2019-03-28T02:13:50.851Z,25.1
2019-03-28T02:14:41.709Z,25.1
2019-03-28T02:15:31.681Z,25.1
2019-03-28T02:16:21.022Z,25.1
2019-03-28T02:17:10.291Z,25
2019-03-28T02:18:00.309Z,24.9
2019-03-28T02:18:49.801Z,24.8
2019-03-28T02:19:41.531Z,24.7
2019-03-28T02:20:31.598Z,24.6
2019-03-28T02:21:21.423Z,24.6
2019-03-28T02:22:11.251Z,24.5
2019-03-28T02:23:01.305Z,24.5
2019-03-28T02:23:50.530Z,24.4
2019-03-28T02:24:40.855Z,24.4
2019-03-28T02:25:31.670Z,24.4
2019-03-28T02:26:21.175Z,24.4
2019-03-28T02:27:24.670Z,24.3
2019-03-28T02:28:01.130Z,25.8
2019-03-28T02:28:51.913Z,26.5
2019-03-28T02:29:41.192Z,27.4
2019-03-28T02:30:33.489Z,28
2019-03-28T02:31:23.745Z,28.6
2019-03-28T02:32:12.237Z,29
2019-03-28T02:33:02.914Z,29.3
2019-03-28T02:33:51.830Z,29.6
2019-03-28T02:34:41.908Z,30
2019-03-28T02:35:31.647Z,30.3
2019-03-28T02:36:22.632Z,30.5
2019-03-28T02:37:12.442Z,30.8
2019-03-28T02:38:02.570Z,30.9
2019-03-28T02:38:52.986Z,31.2
2019-03-28T02:39:42.541Z,31.4
2019-03-28T02:40:32.878Z,31.6
2019-03-28T02:41:22.729Z,31.8
2019-03-28T02:42:12.722Z,31.9
2019-03-28T02:43:02.853Z,32.1
2019-03-28T02:43:53.155Z,31.3
2019-03-28T02:44:44.373Z,29.1
2019-03-28T02:45:34.832Z,27.5
2019-03-28T02:46:23.663Z,26.6
2019-03-28T02:47:13.186Z,26.1
2019-03-28T02:48:04.193Z,25.8
2019-03-28T02:48:55.285Z,25.4
2019-03-28T02:49:42.944Z,25.3
2019-03-28T02:50:33.608Z,25.2
2019-03-28T02:51:23.966Z,25.1
2019-03-28T02:52:13.412Z,25
2019-03-28T02:53:02.967Z,25.1
2019-03-28T02:53:53.985Z,25.4
2019-03-28T02:54:44.200Z,25.6
2019-03-28T02:55:33.679Z,25.6
2019-03-28T02:56:24.626Z,25.7
2019-03-28T02:57:14.780Z,25.7
2019-03-28T02:58:03.831Z,25.6
2019-03-28T02:58:54.169Z,25.7
2019-03-28T02:59:44.242Z,25.6
2019-03-28T03:00:34.026Z,25.6
2019-03-28T03:01:24.664Z,25.6
2019-03-28T03:02:15.276Z,25.6
2019-03-28T03:03:04.606Z,25.6
2019-03-28T03:03:54.036Z,25.5
2019-03-28T03:07:24.899Z,25.2
2019-03-28T03:08:16.047Z,25.1
2019-03-28T03:09:06.055Z,25.1
2019-03-28T03:09:56.938Z,25.1
2019-03-28T03:10:46.188Z,25
2019-03-28T03:11:36.255Z,24.9
2019-03-28T03:12:25.271Z,24.9
2019-03-28T03:13:15.801Z,24.9
2019-03-28T03:14:06.091Z,25.1
2019-03-28T03:14:55.583Z,26.2
2019-03-28T03:15:46.223Z,27.1
2019-03-28T03:16:35.684Z,27.9
2019-03-28T03:17:25.213Z,28.4
2019-03-28T03:18:16.488Z,28.8
2019-03-28T03:19:06.850Z,29.3
2019-03-28T03:19:56.700Z,29.6
2019-03-28T03:20:47.090Z,29.9
2019-03-28T03:21:38.008Z,30.1
2019-03-28T03:22:25.826Z,30.3
2019-03-28T03:23:16.068Z,29.4
2019-03-28T03:24:06.627Z,28.1
2019-03-28T03:24:56.739Z,26.7
2019-03-28T03:25:46.213Z,26.6
2019-03-28T03:26:36.751Z,26.8
2019-03-28T03:27:26.776Z,27.8
2019-03-28T03:28:16.797Z,28.6
2019-03-28T03:29:07.014Z,29.1
2019-03-28T03:29:56.947Z,29.6
2019-03-28T03:30:47.140Z,29.9
2019-03-28T03:31:37.578Z,30.3
2019-03-28T03:32:27.441Z,30.6
2019-03-28T03:33:18.145Z,30.8
2019-03-28T03:34:10.221Z,31.1
2019-03-28T03:34:57.920Z,31.3
2019-03-28T03:35:47.386Z,31.5
2019-03-28T03:36:37.164Z,31.6
2019-03-28T03:37:26.713Z,31.8
2019-03-28T03:38:17.050Z,32
2019-03-28T03:39:06.904Z,30.9
2019-03-28T03:39:57.834Z,28.5
2019-03-28T03:40:47.467Z,27
2019-03-28T03:41:37.389Z,26.2
2019-03-28T03:42:27.894Z,25.6
2019-03-28T03:43:17.929Z,25.3
2019-03-28T03:44:08.333Z,25
2019-03-28T03:44:58.283Z,24.8
2019-03-28T03:45:48.414Z,24.8
2019-03-28T03:46:37.626Z,24.7
2019-03-28T03:47:27.731Z,24.6
2019-03-28T03:48:18.932Z,24.6
2019-03-28T03:49:08.956Z,25.1
2019-03-28T03:49:59.914Z,25.4
2019-03-28T03:50:49.250Z,25.5
2019-03-28T03:51:37.996Z,25.6
2019-03-28T03:52:28.314Z,25.6
2019-03-28T03:53:18.627Z,25.6
2019-03-28T03:54:08.440Z,25.6
2019-03-28T03:54:59.125Z,25.6
2019-03-28T03:55:48.808Z,25.6
2019-03-28T03:56:39.203Z,25.6
2019-03-28T03:57:28.960Z,25.6
2019-03-28T03:58:26.346Z,25.5
2019-03-28T03:59:08.766Z,25.4
2019-03-28T03:59:58.840Z,25.4
2019-03-28T04:00:49.258Z,25.3
2019-03-28T04:01:39.008Z,25.2
2019-03-28T04:02:28.501Z,25.1
2019-03-28T04:03:18.528Z,25.1
2019-03-28T04:04:09.521Z,25.1
2019-03-28T04:05:04.364Z,25
2019-03-28T04:05:49.806Z,25
2019-03-28T04:06:38.885Z,24.9
2019-03-28T04:07:29.472Z,24.9
2019-03-28T04:08:20.223Z,25.4
2019-03-28T04:09:10.079Z,26.6
2019-03-28T04:09:59.629Z,27.4
2019-03-28T04:10:49.596Z,28.2
2019-03-28T04:11:40.114Z,28.6
2019-03-28T04:12:30.335Z,29.1
2019-03-28T04:13:19.838Z,29.4
2019-03-28T04:14:10.537Z,29.7
2019-03-28T04:15:00.471Z,30
2019-03-28T04:15:50.036Z,30.3
2019-03-28T04:16:40.631Z,30.6
2019-03-28T04:17:30.358Z,30.8
2019-03-28T04:18:25.949Z,31
2019-03-28T04:19:10.390Z,31.3
2019-03-28T04:20:02.600Z,31.4
2019-03-28T04:20:51.620Z,31.6
2019-03-28T04:21:40.398Z,31.8
2019-03-28T04:22:31.029Z,31.9
2019-03-28T04:23:20.648Z,32
2019-03-28T04:24:11.256Z,30.4
2019-03-28T04:25:01.376Z,28
2019-03-28T04:25:51.099Z,26.7
2019-03-28T04:26:40.201Z,25.9
2019-03-28T04:27:31.096Z,25.4
2019-03-28T04:28:40.961Z,25
2019-03-28T04:29:11.780Z,24.7
2019-03-28T04:30:02.585Z,24.6
2019-03-28T04:30:51.175Z,24.5
2019-03-28T04:31:41.196Z,24.4
2019-03-28T04:32:31.482Z,24.4
2019-03-28T04:33:21.789Z,24.7
2019-03-28T04:34:17.419Z,25.1
2019-03-28T04:35:03.144Z,25.3
2019-03-28T04:35:52.797Z,25.4
2019-03-28T04:36:42.824Z,25.5
2019-03-28T04:37:32.617Z,25.5
2019-03-28T04:38:21.963Z,25.5
2019-03-28T04:39:11.944Z,25.5
2019-03-28T04:40:01.962Z,25.4
2019-03-28T04:40:52.394Z,25.4
2019-03-28T04:41:42.130Z,25.4
2019-03-28T04:42:31.883Z,25.4
2019-03-28T04:43:21.786Z,25.4
2019-03-28T04:44:11.835Z,25.3
2019-03-28T04:45:05.951Z,25.2
2019-03-28T04:45:52.333Z,25.1
2019-03-28T04:46:42.694Z,25.1
2019-03-28T04:47:32.780Z,25
2019-03-28T04:48:21.985Z,24.9
2019-03-28T04:49:15.457Z,24.9
2019-03-28T04:50:02.797Z,24.9
2019-03-28T04:50:52.690Z,24.8
2019-03-28T04:51:42.747Z,24.8
2019-03-28T04:52:36.300Z,25.7
2019-03-28T04:53:22.353Z,26.8
2019-03-28T04:54:15.768Z,27.6
2019-03-28T04:55:03.380Z,28.1
2019-03-28T04:55:53.285Z,28.6
2019-03-28T04:56:44.083Z,28.9
2019-03-28T04:57:34.419Z,29.3
2019-03-28T04:58:27.929Z,29.5
2019-03-28T04:59:13.567Z,29.9
2019-03-28T05:00:02.832Z,30.1
2019-03-28T05:00:53.574Z,30.3
2019-03-28T05:01:43.222Z,30.5
2019-03-28T05:02:34.833Z,30.8
2019-03-28T05:03:24.961Z,30.9
2019-03-28T05:04:14.130Z,31.1
2019-03-28T05:05:03.998Z,31.3
2019-03-28T05:05:53.266Z,31.4
2019-03-28T05:06:44.992Z,31.6
2019-03-28T05:07:33.325Z,31.7
2019-03-28T05:08:22.859Z,30.4
2019-03-28T05:09:14.057Z,28
2019-03-28T05:10:03.988Z,26.6
2019-03-28T05:10:54.395Z,25.8
2019-03-28T05:11:43.494Z,25.3
2019-03-28T05:12:34.540Z,24.9
2019-03-28T05:13:25.589Z,24.6
2019-03-28T05:14:15.394Z,24.5
2019-03-28T05:15:04.776Z,24.4
2019-03-28T05:15:54.811Z,24.3
2019-03-28T05:16:44.556Z,24.3
2019-03-28T05:17:34.322Z,24.3
2019-03-28T05:18:24.671Z,24.8
2019-03-28T05:19:14.751Z,25.1
2019-03-28T05:20:05.011Z,25.3
2019-03-28T05:20:55.117Z,25.3
2019-03-28T05:21:44.736Z,25.3
2019-03-28T05:22:34.986Z,25.4
2019-03-28T05:23:25.582Z,25.3
2019-03-28T05:24:14.834Z,25.3
2019-03-28T05:25:06.552Z,25.3
2019-03-28T05:25:56.277Z,25.3
2019-03-28T05:26:45.999Z,25.3
2019-03-28T05:27:35.913Z,25.3
2019-03-28T05:28:26.443Z,25.2
2019-03-28T05:29:15.738Z,25.6
2019-03-28T05:30:08.536Z,26.8
2019-03-28T05:30:55.565Z,27.8
2019-03-28T05:31:45.633Z,28.3
2019-03-28T05:32:35.493Z,28.8
2019-03-28T05:33:26.016Z,29.2
2019-03-28T05:34:16.320Z,29.6
2019-03-28T05:35:07.043Z,29.9
2019-03-28T05:35:56.631Z,30.2
2019-03-28T05:36:47.280Z,30.5
2019-03-28T05:37:36.391Z,30.8
2019-03-28T05:38:25.384Z,30.9
2019-03-28T05:39:15.980Z,31.1
2019-03-28T05:40:06.686Z,31.3
2019-03-28T05:40:56.038Z,31.4
2019-03-28T05:41:45.229Z,31.6
2019-03-28T05:42:36.713Z,31.3
2019-03-28T05:43:26.210Z,29.1
2019-03-28T05:44:16.264Z,27.1
2019-03-28T05:45:06.594Z,25.9
2019-03-28T05:45:56.683Z,25.3
2019-03-28T05:46:46.993Z,24.8
2019-03-28T05:47:37.741Z,24.4
2019-03-28T05:48:26.568Z,24.3
2019-03-28T05:49:16.900Z,24.1
2019-03-28T05:50:07.290Z,24.1
2019-03-28T05:50:56.640Z,24
2019-03-28T05:51:47.087Z,24
2019-03-28T05:52:36.515Z,24.5
2019-03-28T05:53:27.967Z,24.8
2019-03-28T05:54:16.280Z,25.1
2019-03-28T05:55:10.504Z,25.1
2019-03-28T05:55:56.652Z,25.2
2019-03-28T05:56:47.715Z,25.2
2019-03-28T05:57:37.487Z,25.2
2019-03-28T05:58:27.844Z,25.2
2019-03-28T05:59:19.979Z,25.1
2019-03-28T06:00:07.906Z,25.1
2019-03-28T06:00:58.786Z,25.1
2019-03-28T06:01:48.042Z,25.1
2019-03-28T06:02:38.167Z,25.1
2019-03-28T06:05:26.335Z,27.5
2019-03-28T06:06:15.901Z,28.3
2019-03-28T06:07:19.851Z,28.8
2019-03-28T06:07:54.987Z,29.3
2019-03-28T06:09:00.609Z,29.4
2019-03-28T06:09:50.521Z,29.8
2019-03-28T06:10:25.213Z,29
2019-03-28T06:11:15.766Z,28.3
2019-03-28T06:12:05.619Z,26.6
2019-03-28T06:13:10.101Z,26.3
2019-03-28T06:13:46.306Z,26.4
2019-03-28T06:14:36.088Z,27.6
2019-03-28T06:15:25.868Z,28.2
2019-03-28T06:16:15.653Z,28.8
2019-03-28T06:17:19.528Z,29.3
2019-03-28T06:17:57.765Z,29.8
2019-03-28T06:18:47.358Z,30.1
2019-03-28T06:19:36.350Z,30.4
2019-03-28T06:20:25.373Z,30.7
2019-03-28T06:21:16.471Z,31
2019-03-28T06:22:06.604Z,31.3
2019-03-28T06:22:56.121Z,31.6
2019-03-28T06:23:46.672Z,31.8
2019-03-28T06:24:37.310Z,31.9
2019-03-28T06:25:29.540Z,30.6
2019-03-28T06:26:17.606Z,28.1
2019-03-28T06:27:06.200Z,26.7
2019-03-28T06:27:56.640Z,25.8
2019-03-28T06:28:45.813Z,25.3
2019-03-28T06:29:36.370Z,24.9
2019-03-28T06:30:26.647Z,24.7
2019-03-28T06:31:18.080Z,24.5
2019-03-28T06:32:08.300Z,24.4
2019-03-28T06:33:00.271Z,24.4
2019-03-28T06:33:46.903Z,24.3
2019-03-28T06:34:36.724Z,24.3
2019-03-28T06:35:30.130Z,24.4
2019-03-28T06:36:18.429Z,24.4
2019-03-28T06:37:08.437Z,24.4
2019-03-28T06:38:00.904Z,24.4
2019-03-28T06:38:47.238Z,24.5
2019-03-28T06:39:40.182Z,24.6
2019-03-28T06:40:27.930Z,24.6
2019-03-28T06:41:17.502Z,24.6
2019-03-28T06:42:07.326Z,24.6
2019-03-28T06:42:57.846Z,24.6
2019-03-28T06:43:48.884Z,24.6
2019-03-28T06:44:37.704Z,24.7
2019-03-28T06:45:27.776Z,24.7
2019-03-28T06:46:18.145Z,24.7
2019-03-28T06:47:07.595Z,24.7
2019-03-28T06:47:58.235Z,24.6
2019-03-28T06:48:47.171Z,24.6
2019-03-28T06:49:37.608Z,24.6
2019-03-28T06:50:27.925Z,24.6
2019-03-28T06:51:18.435Z,24.6
2019-03-28T06:52:08.523Z,24.6
2019-03-28T06:52:58.051Z,24.6
2019-03-28T06:53:48.576Z,25.3
2019-03-28T06:54:38.523Z,26.7
2019-03-28T06:55:32.249Z,27.7
2019-03-28T06:56:19.830Z,28.6
2019-03-28T06:57:08.113Z,29.1
2019-03-28T06:57:58.491Z,29.5
2019-03-28T06:58:48.415Z,29.9
2019-03-28T06:59:45.188Z,30.2
2019-03-28T07:00:28.603Z,30.6
2019-03-28T07:01:19.403Z,30.9
2019-03-28T07:02:08.620Z,31.1
2019-03-28T07:02:58.463Z,31.4
2019-03-28T07:05:32.162Z,32.1
2019-03-28T07:06:15.228Z,30.3
2019-03-28T07:07:05.005Z,28
2019-03-28T07:07:54.848Z,26.3
2019-03-28T07:08:45.218Z,25.3
2019-03-28T07:09:35.659Z,24.8
2019-03-28T07:10:25.437Z,24.4
2019-03-28T07:11:15.255Z,24.1
2019-03-28T07:12:05.071Z,23.9
2019-03-28T07:12:55.114Z,23.8
2019-03-28T07:13:45.475Z,23.7
2019-03-28T07:14:35.872Z,23.7
2019-03-28T07:15:25.952Z,23.6
2019-03-28T07:16:15.384Z,23.7
2019-03-28T07:17:05.722Z,23.8
2019-03-28T07:17:55.494Z,23.8
2019-03-28T07:18:45.830Z,23.8
2019-03-28T07:19:35.980Z,23.9
2019-03-28T07:20:25.134Z,23.9
2019-03-28T07:21:15.279Z,23.9
2019-03-28T07:22:05.446Z,24
2019-03-28T07:22:55.822Z,24
2019-03-28T07:23:46.422Z,24.1
2019-03-28T07:24:36.187Z,24.1
2019-03-28T07:25:29.849Z,24.1
2019-03-28T07:26:16.307Z,24.1
2019-03-28T07:27:05.859Z,24.1
2019-03-28T07:27:56.232Z,24.1
2019-03-28T07:28:45.729Z,24.1
2019-03-28T07:29:49.702Z,24.1
2019-03-28T07:30:27.033Z,24.1
2019-03-28T07:31:16.946Z,24.1
2019-03-28T07:32:06.895Z,24.1
2019-03-28T07:32:56.608Z,24.1
2019-03-28T07:33:46.904Z,24.1
2019-03-28T07:34:36.173Z,24.1
2019-03-28T07:35:26.293Z,24
2019-03-28T07:36:16.529Z,24
2019-03-28T07:37:06.871Z,24
2019-03-28T07:37:56.756Z,23.9
2019-03-28T07:38:46.986Z,23.9
2019-03-28T07:39:37.078Z,23.9
2019-03-28T07:40:28.061Z,23.9
2019-03-28T07:41:20.259Z,23.9
2019-03-28T07:42:07.146Z,24.8
2019-03-28T07:42:57.684Z,26.1
2019-03-28T07:43:48.038Z,27.3
2019-03-28T07:44:41.396Z,28.3
2019-03-28T07:45:29.025Z,29.1
2019-03-28T07:46:17.305Z,29.6
2019-03-28T07:47:07.725Z,29.9
2019-03-28T07:47:58.579Z,30.3
2019-03-28T07:48:48.278Z,30.5
2019-03-28T07:49:41.136Z,28.9
2019-03-28T07:50:28.570Z,27.3
2019-03-28T07:51:18.157Z,26.4
2019-03-28T07:52:09.193Z,25.9
2019-03-28T07:52:59.467Z,25.5
2019-03-28T07:53:49.842Z,25.3
2019-03-28T07:54:39.304Z,25.1
2019-03-28T07:55:28.654Z,25
2019-03-28T07:56:18.743Z,24.9
2019-03-28T07:57:09.178Z,24.9
2019-03-28T07:57:58.280Z,24.9
2019-03-28T07:58:51.990Z,24.9
2019-03-28T07:59:39.313Z,24.9
2019-03-28T08:00:29.269Z,24.9
2019-03-28T08:01:22.840Z,24.9
2019-03-28T08:02:08.120Z,24.8
2019-03-28T08:03:02.734Z,24.9
2019-03-28T08:03:49.622Z,24.9
2019-03-28T08:04:39.069Z,24.9
2019-03-28T08:05:29.064Z,24.9
2019-03-28T08:06:21.775Z,24.9
2019-03-28T08:07:08.295Z,24.9
2019-03-28T08:07:59.364Z,24.9
2019-03-28T08:08:51.405Z,24.9
2019-03-28T08:09:44.168Z,24.9
2019-03-28T08:10:28.967Z,24.9
2019-03-28T08:11:20.782Z,24.9
2019-03-28T08:12:27.271Z,24.9
2019-03-28T08:12:59.917Z,24.9
2019-03-28T08:13:50.032Z,24.9
2019-03-28T08:14:40.113Z,24.9
2019-03-28T08:15:30.386Z,24.9
2019-03-28T08:16:19.397Z,24.8
2019-03-28T08:17:10.026Z,24.8
2019-03-28T08:18:00.563Z,24.8
2019-03-28T08:18:51.116Z,24.8
2019-03-28T08:19:44.879Z,24.8
2019-03-28T08:20:30.191Z,24.8
2019-03-28T08:21:20.819Z,24.7
2019-03-28T08:22:09.838Z,24.9
2019-03-28T08:23:00.173Z,26.2
2019-03-28T08:23:50.501Z,27.3
2019-03-28T08:24:40.259Z,28.3
2019-03-28T08:25:30.706Z,29.1
2019-03-28T08:26:20.656Z,29.6
2019-03-28T08:27:10.553Z,30
2019-03-28T08:28:04.318Z,30.4
2019-03-28T08:28:50.868Z,30.8
2019-03-28T08:29:40.940Z,30
2019-03-28T08:30:30.715Z,27.9
2019-03-28T08:31:22.188Z,26.6
2019-03-28T08:32:15.173Z,25.9
2019-03-28T08:33:01.930Z,25.4
2019-03-28T08:33:50.914Z,25.1
2019-03-28T08:34:41.278Z,24.9
2019-03-28T08:35:30.893Z,24.8
2019-03-28T08:36:21.147Z,24.8
2019-03-28T08:37:11.015Z,24.7
2019-03-28T08:38:01.577Z,24.6
2019-03-28T08:38:51.605Z,24.6
2019-03-28T08:39:45.020Z,24.6
2019-03-28T08:40:31.022Z,24.6
2019-03-28T08:41:22.279Z,24.6
2019-03-28T08:42:11.042Z,24.7
2019-03-28T08:43:01.372Z,24.7
2019-03-28T08:43:51.194Z,24.7
2019-03-28T08:44:42.420Z,24.8
2019-03-28T08:45:31.477Z,24.8
2019-03-28T08:46:22.127Z,24.8
2019-03-28T08:47:13.240Z,24.8
2019-03-28T08:48:02.005Z,24.8
2019-03-28T08:48:52.076Z,24.8
2019-03-28T08:49:42.071Z,24.8
2019-03-28T08:50:32.431Z,24.8
2019-03-28T08:51:22.314Z,24.8
2019-03-28T08:52:15.982Z,24.8
2019-03-28T08:53:02.111Z,24.8
2019-03-28T08:53:52.380Z,24.8
2019-03-28T08:54:42.450Z,24.8
2019-03-28T08:55:31.869Z,24.7
2019-03-28T08:56:21.831Z,24.6
2019-03-28T08:57:14.790Z,24.6
2019-03-28T08:58:02.772Z,24.6
2019-03-28T08:58:52.824Z,24.5
2019-03-28T08:59:42.814Z,24.5
2019-03-28T09:00:59.868Z,24.5
2019-03-28T09:01:23.013Z,24.8
2019-03-28T09:02:13.341Z,25.4
2019-03-28T09:03:02.560Z,26.8
2019-03-28T09:03:56.346Z,27.9
2019-03-28T09:04:43.451Z,28.8
2019-03-28T09:05:33.446Z,29.4
2019-03-28T09:06:25.181Z,29.9
2019-03-28T09:07:17.204Z,30.3
2019-03-28T09:08:04.156Z,30.8
2019-03-28T09:08:53.367Z,30.7
2019-03-28T09:09:44.261Z,28.7
2019-03-28T09:10:33.828Z,26.9
2019-03-28T09:11:27.712Z,25.9
2019-03-28T09:12:13.998Z,25.3
2019-03-28T09:13:04.283Z,24.9
2019-03-28T09:13:54.293Z,24.7
2019-03-28T09:14:44.500Z,24.6
2019-03-28T09:15:49.343Z,24.4
2019-03-28T09:16:24.218Z,24.4
2019-03-28T09:17:13.780Z,24.3
2019-03-28T09:18:07.063Z,24.3
2019-03-28T09:18:54.260Z,24.3
2019-03-28T09:19:46.195Z,24.3
2019-03-28T09:20:34.236Z,24.3
2019-03-28T09:21:24.683Z,24.4
2019-03-28T09:22:14.610Z,24.3
2019-03-28T09:23:04.763Z,24.4
2019-03-28T09:23:54.762Z,24.4
2019-03-28T09:24:44.822Z,24.4
2019-03-28T09:25:34.870Z,24.4
2019-03-28T09:26:25.150Z,24.4
2019-03-28T09:27:15.260Z,24.4
2019-03-28T09:28:04.765Z,24.4
2019-03-28T09:28:55.458Z,24.4
2019-03-28T09:29:44.431Z,24.4
2019-03-28T09:30:52.375Z,24.4
2019-03-28T09:31:27.234Z,24.3
2019-03-28T09:32:15.031Z,24.3
2019-03-28T09:33:04.269Z,24.3
2019-03-28T09:33:55.069Z,24.3
2019-03-28T09:34:45.070Z,24.3
2019-03-28T09:35:37.107Z,24.3
2019-03-28T09:36:26.426Z,24.3
2019-03-28T09:37:16.293Z,24.3
2019-03-28T09:38:05.796Z,24.3
2019-03-28T09:38:55.562Z,24.2
2019-03-28T09:39:46.177Z,24.3
2019-03-28T09:40:36.262Z,25.6
2019-03-28T09:41:26.099Z,26.9
2019-03-28T09:42:16.664Z,28
2019-03-28T09:43:06.237Z,28.8
2019-03-28T09:44:03.559Z,29.4
2019-03-28T09:44:46.822Z,29.9
2019-03-28T09:45:37.481Z,30.4
2019-03-28T09:46:25.886Z,30.7
2019-03-28T09:47:15.636Z,29.4
2019-03-28T09:48:06.591Z,27.3
2019-03-28T09:48:56.164Z,25.9
2019-03-28T09:49:46.383Z,25.2
2019-03-28T09:50:36.452Z,24.8
2019-03-28T09:51:26.386Z,24.4
2019-03-28T09:52:17.068Z,24.3
2019-03-28T09:53:08.169Z,24.1
2019-03-28T09:53:57.333Z,24.1
2019-03-28T09:54:46.381Z,24
2019-03-28T09:55:37.151Z,24
2019-03-28T09:56:27.435Z,23.9
2019-03-28T09:57:17.108Z,23.9
2019-03-28T09:58:07.513Z,23.9
2019-03-28T09:59:00.864Z,24
2019-03-28T09:59:47.628Z,23.9
2019-03-28T10:00:41.842Z,24
2019-03-28T10:01:27.465Z,24
2019-03-28T10:02:17.500Z,24
2019-03-28T10:03:06.915Z,24
2019-03-28T10:03:57.685Z,24
2019-03-28T10:06:24.958Z,24.1
2019-03-28T10:07:14.738Z,24.1
2019-03-28T10:08:05.010Z,24.1
2019-03-28T10:08:54.700Z,24
2019-03-28T10:09:48.285Z,24
2019-03-28T10:10:35.525Z,24
2019-03-28T10:11:24.262Z,24
2019-03-28T10:12:15.652Z,24
2019-03-28T10:13:05.442Z,24
2019-03-28T10:13:55.253Z,23.9
2019-03-28T10:14:45.805Z,23.9
2019-03-28T10:15:39.344Z,23.9
2019-03-28T10:16:25.948Z,23.8
2019-03-28T10:17:15.241Z,24.1
2019-03-28T10:18:05.571Z,25.5
2019-03-28T10:18:55.862Z,26.9
2019-03-28T10:19:47.291Z,28.1
2019-03-28T10:20:35.950Z,28.8
2019-03-28T10:21:26.046Z,29.3
2019-03-28T10:22:16.393Z,29.8
2019-03-28T10:23:06.423Z,30.3
2019-03-28T10:23:55.746Z,30.7
2019-03-28T10:24:46.518Z,30.3
2019-03-28T10:25:35.911Z,27.8
2019-03-28T10:26:26.083Z,26.3
2019-03-28T10:27:19.693Z,25.4
2019-03-28T10:28:06.340Z,24.8
2019-03-28T10:28:56.575Z,24.4
2019-03-28T10:29:46.340Z,24.3
2019-03-28T10:30:36.673Z,24.1
2019-03-28T10:31:26.514Z,24
2019-03-28T10:32:31.255Z,23.9
2019-03-28T10:33:06.720Z,23.9
2019-03-28T10:33:57.922Z,23.9
2019-03-28T10:34:46.598Z,23.8
2019-03-28T10:35:36.760Z,23.9
2019-03-28T10:36:30.235Z,23.9
2019-03-28T10:37:16.657Z,23.9
2019-03-28T10:38:07.517Z,23.9
2019-03-28T10:38:56.997Z,23.9
2019-03-28T10:39:47.172Z,23.9
2019-03-28T10:40:37.581Z,23.9
2019-03-28T10:41:32.247Z,23.9
2019-03-28T10:42:17.787Z,23.9
2019-03-28T10:43:07.649Z,23.9
2019-03-28T10:43:57.659Z,23.9
2019-03-28T10:44:47.965Z,23.9
2019-03-28T10:45:41.391Z,24
2019-03-28T10:46:27.810Z,24
2019-03-28T10:47:17.453Z,24
2019-03-28T10:48:08.206Z,24
2019-03-28T10:49:01.717Z,23.9
2019-03-28T10:49:49.199Z,23.9
2019-03-28T10:50:53.244Z,23.9
2019-03-28T10:51:28.459Z,24
2019-03-28T10:52:19.990Z,23.9
2019-03-28T10:53:08.314Z,23.9
2019-03-28T10:53:58.724Z,23.9
2019-03-28T10:54:48.194Z,24.1
2019-03-28T10:55:38.099Z,25.6
2019-03-28T10:56:31.473Z,27.1
2019-03-28T10:57:38.381Z,28.4
2019-03-28T10:58:25.734Z,29.3
2019-03-28T10:58:58.261Z,29.8
2019-03-28T10:59:48.278Z,30.2
2019-03-28T11:00:38.346Z,30.6
2019-03-28T11:01:58.451Z,31
2019-03-28T11:02:20.303Z,28.1
2019-03-28T11:03:10.989Z,27.2
2019-03-28T11:03:59.900Z,25.8
2019-03-28T11:04:50.238Z,24.9
2019-03-28T11:05:39.064Z,24.4
2019-03-28T11:06:29.204Z,24.1
2019-03-28T11:07:19.323Z,23.9
2019-03-28T11:08:09.703Z,23.8
2019-03-28T11:08:59.235Z,23.6
2019-03-28T11:09:49.530Z,23.6
2019-03-28T11:10:39.328Z,23.6
2019-03-28T11:11:30.448Z,23.6
2019-03-28T11:12:19.498Z,23.6
2019-03-28T11:13:13.890Z,23.6
2019-03-28T11:13:59.560Z,23.6
2019-03-28T11:14:53.213Z,23.7
2019-03-28T11:15:39.148Z,23.8
2019-03-28T11:16:30.985Z,23.8
2019-03-28T11:17:19.422Z,23.8
2019-03-28T11:18:10.131Z,23.9